sensor_id;sensor_type;location;lat;lon;timestamp;pressure;altitude;pressure_sealevel;temperature;humidity
49999;BME280;68071;45.062;7.356;2023-07-31T00:02:12;94923.16;;;17.85;55.41
49999;BME280;68071;45.062;7.356;2023-07-31T00:05:16;94922.03;;;17.73;54.37
49999;BME280;68071;45.062;7.356;2023-07-31T00:08:20;94931.66;;;17.31;65.49
49999;BME280;68071;45.062;7.356;2023-07-31T00:11:24;94922.00;;;17.64;55.23
49999;BME280;68071;45.062;7.356;2023-07-31T00:14:28;94938.97;;;17.38;58.34
49999;BME280;68071;45.062;7.356;2023-07-31T00:17:50;94927.09;;;17.56;57.19
49999;BME280;68071;45.062;7.356;2023-07-31T00:20:53;94933.22;;;17.42;61.10
49999;BME280;68071;45.062;7.356;2023-07-31T00:23:57;94941.34;;;17.49;50.78
49999;BME280;68071;45.062;7.356;2023-07-31T00:27:01;94934.09;;;17.61;51.84
49999;BME280;68071;45.062;7.356;2023-07-31T00:30:06;94938.63;;;17.27;59.23
49999;BME280;68071;45.062;7.356;2023-07-31T00:33:10;94938.44;;;16.99;62.83
49999;BME280;68071;45.062;7.356;2023-07-31T00:36:15;94946.50;;;17.19;57.19
49999;BME280;68071;45.062;7.356;2023-07-31T00:39:20;94930.91;;;17.40;61.60
49999;BME280;68071;45.062;7.356;2023-07-31T00:42:24;94940.25;;;17.15;60.10
49999;BME280;68071;45.062;7.356;2023-07-31T00:45:29;94937.31;;;17.50;52.85
49999;BME280;68071;45.062;7.356;2023-07-31T00:48:32;94932.94;;;17.08;54.87
49999;BME280;68071;45.062;7.356;2023-07-31T00:51:37;94926.63;;;17.48;58.73
49999;BME280;68071;45.062;7.356;2023-07-31T00:54:41;94921.53;;;17.24;54.55
49999;BME280;68071;45.062;7.356;2023-07-31T00:57:45;94931.31;;;17.29;52.75
49999;BME280;68071;45.062;7.356;2023-07-31T01:00:49;94932.59;;;17.06;55.31
49999;BME280;68071;45.062;7.356;2023-07-31T01:03:54;94926.72;;;17.35;58.39
49999;BME280;68071;45.062;7.356;2023-07-31T01:07:27;94931.28;;;16.75;60.10
49999;BME280;68071;45.062;7.356;2023-07-31T01:10:37;94925.47;;;16.83;55.79
49999;BME280;68071;45.062;7.356;2023-07-31T01:13:45;94924.63;;;16.38;59.74
49999;BME280;68071;45.062;7.356;2023-07-31T01:16:50;94925.81;;;16.27;62.61
49999;BME280;68071;45.062;7.356;2023-07-31T01:19:56;94917.84;;;15.91;78.32
49999;BME280;68071;45.062;7.356;2023-07-31T01:26:33;94926.63;;;16.15;68.02
49999;BME280;68071;45.062;7.356;2023-07-31T01:29:43;94917.81;;;16.39;69.74
49999;BME280;68071;45.062;7.356;2023-07-31T01:32:51;94914.25;;;16.16;57.74
49999;BME280;68071;45.062;7.356;2023-07-31T01:35:57;94909.53;;;16.48;63.85
49999;BME280;68071;45.062;7.356;2023-07-31T01:39:02;94908.28;;;16.27;60.98
49999;BME280;68071;45.062;7.356;2023-07-31T01:42:06;94909.59;;;16.35;64.94
49999;BME280;68071;45.062;7.356;2023-07-31T01:45:11;94910.34;;;16.13;65.64
49999;BME280;68071;45.062;7.356;2023-07-31T01:48:16;94909.72;;;16.31;64.44
49999;BME280;68071;45.062;7.356;2023-07-31T01:51:20;94911.75;;;16.75;56.01
49999;BME280;68071;45.062;7.356;2023-07-31T01:54:24;94912.09;;;17.31;54.06
49999;BME280;68071;45.062;7.356;2023-07-31T01:57:28;94922.13;;;16.75;61.97
49999;BME280;68071;45.062;7.356;2023-07-31T02:00:32;94917.19;;;16.79;63.17
49999;BME280;68071;45.062;7.356;2023-07-31T02:03:36;94915.81;;;16.84;66.80
49999;BME280;68071;45.062;7.356;2023-07-31T02:06:39;94919.53;;;16.36;64.14
49999;BME280;68071;45.062;7.356;2023-07-31T02:09:43;94915.47;;;17.58;51.27
49999;BME280;68071;45.062;7.356;2023-07-31T02:12:47;94919.47;;;17.16;56.66
49999;BME280;68071;45.062;7.356;2023-07-31T02:15:51;94926.59;;;16.94;60.30
49999;BME280;68071;45.062;7.356;2023-07-31T02:18:55;94923.44;;;17.05;56.32
49999;BME280;68071;45.062;7.356;2023-07-31T02:21:59;94930.31;;;16.91;63.92
49999;BME280;68071;45.062;7.356;2023-07-31T02:25:03;94928.50;;;16.75;59.64
49999;BME280;68071;45.062;7.356;2023-07-31T02:28:07;94923.16;;;16.46;60.66
49999;BME280;68071;45.062;7.356;2023-07-31T02:31:11;94929.22;;;16.44;67.51
49999;BME280;68071;45.062;7.356;2023-07-31T02:34:15;94925.09;;;15.75;78.69
49999;BME280;68071;45.062;7.356;2023-07-31T02:37:19;94927.41;;;16.15;71.83
49999;BME280;68071;45.062;7.356;2023-07-31T02:40:23;94934.13;;;16.40;64.79
49999;BME280;68071;45.062;7.356;2023-07-31T02:43:28;94926.22;;;17.05;58.59
49999;BME280;68071;45.062;7.356;2023-07-31T02:46:32;94938.38;;;16.89;63.23
49999;BME280;68071;45.062;7.356;2023-07-31T02:49:36;94936.34;;;16.68;67.40
49999;BME280;68071;45.062;7.356;2023-07-31T02:52:40;94946.41;;;16.87;60.23
49999;BME280;68071;45.062;7.356;2023-07-31T02:55:44;94945.19;;;16.88;68.61
49999;BME280;68071;45.062;7.356;2023-07-31T02:58:47;94942.84;;;16.64;65.54
49999;BME280;68071;45.062;7.356;2023-07-31T03:01:51;94947.13;;;16.21;68.77
49999;BME280;68071;45.062;7.356;2023-07-31T03:04:55;94945.97;;;15.96;72.20
49999;BME280;68071;45.062;7.356;2023-07-31T03:07:59;94956.00;;;16.29;64.27
49999;BME280;68071;45.062;7.356;2023-07-31T03:11:03;94944.78;;;16.20;71.64
49999;BME280;68071;45.062;7.356;2023-07-31T03:14:06;94943.81;;;16.00;72.86
49999;BME280;68071;45.062;7.356;2023-07-31T03:17:10;94948.81;;;16.06;71.27
49999;BME280;68071;45.062;7.356;2023-07-31T03:20:14;94955.75;;;16.01;72.07
49999;BME280;68071;45.062;7.356;2023-07-31T03:23:19;94959.75;;;15.61;75.76
49999;BME280;68071;45.062;7.356;2023-07-31T03:26:23;94967.22;;;15.51;84.17
49999;BME280;68071;45.062;7.356;2023-07-31T03:29:26;94970.28;;;15.02;87.51
49999;BME280;68071;45.062;7.356;2023-07-31T03:32:30;94963.53;;;15.41;82.78
49999;BME280;68071;45.062;7.356;2023-07-31T03:35:34;94972.94;;;15.86;69.90
49999;BME280;68071;45.062;7.356;2023-07-31T03:38:39;94978.03;;;15.62;82.73
49999;BME280;68071;45.062;7.356;2023-07-31T03:41:45;94979.72;;;15.72;73.61
49999;BME280;68071;45.062;7.356;2023-07-31T03:44:48;94975.47;;;15.42;82.29
49999;BME280;68071;45.062;7.356;2023-07-31T03:47:53;94967.44;;;15.83;70.29
49999;BME280;68071;45.062;7.356;2023-07-31T03:50:58;94976.38;;;15.78;74.67
49999;BME280;68071;45.062;7.356;2023-07-31T03:54:02;94960.22;;;15.72;83.97
49999;BME280;68071;45.062;7.356;2023-07-31T03:57:06;94963.44;;;15.71;80.01
49999;BME280;68071;45.062;7.356;2023-07-31T04:00:10;94958.66;;;15.46;76.55
49999;BME280;68071;45.062;7.356;2023-07-31T04:03:18;94977.94;;;15.66;71.06
49999;BME280;68071;45.062;7.356;2023-07-31T04:06:22;94972.16;;;15.86;76.17
49999;BME280;68071;45.062;7.356;2023-07-31T04:09:26;94976.94;;;16.46;65.53
49999;BME280;68071;45.062;7.356;2023-07-31T04:12:30;94984.13;;;17.14;58.96
49999;BME280;68071;45.062;7.356;2023-07-31T04:15:33;94983.44;;;17.01;70.31
49999;BME280;68071;45.062;7.356;2023-07-31T04:18:37;94984.59;;;16.90;70.34
49999;BME280;68071;45.062;7.356;2023-07-31T04:21:42;94984.06;;;16.83;72.59
49999;BME280;68071;45.062;7.356;2023-07-31T04:24:46;94981.81;;;16.55;74.20
49999;BME280;68071;45.062;7.356;2023-07-31T04:27:50;94973.94;;;17.83;57.26
49999;BME280;68071;45.062;7.356;2023-07-31T04:30:54;94987.53;;;17.09;78.93
49999;BME280;68071;45.062;7.356;2023-07-31T04:33:58;94993.66;;;17.48;66.40
49999;BME280;68071;45.062;7.356;2023-07-31T04:37:02;94995.81;;;18.26;59.95
49999;BME280;68071;45.062;7.356;2023-07-31T04:40:07;94999.34;;;17.67;75.74
49999;BME280;68071;45.062;7.356;2023-07-31T04:43:11;95014.25;;;17.42;75.17
49999;BME280;68071;45.062;7.356;2023-07-31T04:46:15;95014.25;;;17.42;77.87
49999;BME280;68071;45.062;7.356;2023-07-31T04:49:19;95016.53;;;17.34;80.93
49999;BME280;68071;45.062;7.356;2023-07-31T04:52:23;95015.75;;;17.56;78.32
49999;BME280;68071;45.062;7.356;2023-07-31T04:55:28;95014.72;;;17.40;86.03
49999;BME280;68071;45.062;7.356;2023-07-31T04:58:31;95018.38;;;17.28;91.06
49999;BME280;68071;45.062;7.356;2023-07-31T05:01:35;95020.69;;;17.83;84.62
49999;BME280;68071;45.062;7.356;2023-07-31T05:04:39;95025.69;;;17.88;91.44
49999;BME280;68071;45.062;7.356;2023-07-31T05:07:43;95024.94;;;17.97;87.73
49999;BME280;68071;45.062;7.356;2023-07-31T05:10:47;95029.72;;;17.87;94.84
49999;BME280;68071;45.062;7.356;2023-07-31T05:13:52;95026.06;;;17.68;97.22
49999;BME280;68071;45.062;7.356;2023-07-31T05:16:56;95034.72;;;17.92;94.87
49999;BME280;68071;45.062;7.356;2023-07-31T05:20:00;95029.22;;;18.20;95.93
49999;BME280;68071;45.062;7.356;2023-07-31T05:23:04;95037.00;;;17.84;98.44
49999;BME280;68071;45.062;7.356;2023-07-31T05:26:08;95038.53;;;18.17;97.96
49999;BME280;68071;45.062;7.356;2023-07-31T05:29:13;95037.19;;;18.31;95.00
49999;BME280;68071;45.062;7.356;2023-07-31T05:32:17;95044.44;;;18.10;90.42
49999;BME280;68071;45.062;7.356;2023-07-31T05:35:22;95045.34;;;18.57;89.65
49999;BME280;68071;45.062;7.356;2023-07-31T05:38:25;95045.66;;;18.68;92.31
49999;BME280;68071;45.062;7.356;2023-07-31T05:41:29;95040.06;;;18.59;96.13
49999;BME280;68071;45.062;7.356;2023-07-31T05:44:34;95038.94;;;18.56;100.00
49999;BME280;68071;45.062;7.356;2023-07-31T05:47:38;95035.88;;;18.82;96.17
49999;BME280;68071;45.062;7.356;2023-07-31T05:50:43;95038.72;;;19.01;93.41
49999;BME280;68071;45.062;7.356;2023-07-31T05:53:48;95044.16;;;19.04;93.89
49999;BME280;68071;45.062;7.356;2023-07-31T05:56:51;95040.84;;;18.69;98.36
49999;BME280;68071;45.062;7.356;2023-07-31T05:59:55;95039.47;;;18.92;99.06
49999;BME280;68071;45.062;7.356;2023-07-31T06:02:59;95036.63;;;18.83;100.00
49999;BME280;68071;45.062;7.356;2023-07-31T06:06:03;95040.88;;;19.15;100.00
49999;BME280;68071;45.062;7.356;2023-07-31T06:09:07;95028.88;;;19.33;99.27
49999;BME280;68071;45.062;7.356;2023-07-31T06:12:11;95037.41;;;19.58;98.17
49999;BME280;68071;45.062;7.356;2023-07-31T06:15:15;95036.59;;;19.76;97.87
49999;BME280;68071;45.062;7.356;2023-07-31T06:18:19;95039.09;;;19.64;100.00
49999;BME280;68071;45.062;7.356;2023-07-31T06:21:23;95044.03;;;19.79;100.00
49999;BME280;68071;45.062;7.356;2023-07-31T06:24:28;95041.66;;;19.34;100.00
49999;BME280;68071;45.062;7.356;2023-07-31T06:27:31;95047.69;;;19.61;100.00
49999;BME280;68071;45.062;7.356;2023-07-31T06:30:36;95044.91;;;20.04;100.00
49999;BME280;68071;45.062;7.356;2023-07-31T06:33:40;95049.75;;;20.37;100.00
49999;BME280;68071;45.062;7.356;2023-07-31T06:36:44;95043.56;;;20.57;96.45
49999;BME280;68071;45.062;7.356;2023-07-31T06:39:47;95063.38;;;20.53;96.98
49999;BME280;68071;45.062;7.356;2023-07-31T06:42:51;95059.91;;;20.68;94.95
49999;BME280;68071;45.062;7.356;2023-07-31T06:45:55;95061.47;;;20.93;92.03
49999;BME280;68071;45.062;7.356;2023-07-31T06:48:59;95069.25;;;21.13;87.76
49999;BME280;68071;45.062;7.356;2023-07-31T06:52:03;95062.47;;;21.59;87.27
49999;BME280;68071;45.062;7.356;2023-07-31T06:55:19;95067.81;;;22.17;78.77
49999;BME280;68071;45.062;7.356;2023-07-31T06:58:23;95071.31;;;22.12;70.43
49999;BME280;68071;45.062;7.356;2023-07-31T07:01:27;95069.94;;;22.23;68.93
49999;BME280;68071;45.062;7.356;2023-07-31T07:04:32;95069.34;;;22.33;70.66
49999;BME280;68071;45.062;7.356;2023-07-31T07:07:36;95075.41;;;22.62;64.64
49999;BME280;68071;45.062;7.356;2023-07-31T07:10:40;95082.41;;;22.51;67.85
49999;BME280;68071;45.062;7.356;2023-07-31T07:13:44;95080.31;;;22.31;64.64
49999;BME280;68071;45.062;7.356;2023-07-31T07:16:51;95076.31;;;22.53;67.40
49999;BME280;68071;45.062;7.356;2023-07-31T07:19:55;95072.63;;;22.32;76.12
49999;BME280;68071;45.062;7.356;2023-07-31T07:22:59;95074.41;;;22.14;76.69
49999;BME280;68071;45.062;7.356;2023-07-31T07:26:04;95084.09;;;22.13;76.28
49999;BME280;68071;45.062;7.356;2023-07-31T07:29:08;95081.97;;;22.74;73.45
49999;BME280;68071;45.062;7.356;2023-07-31T07:32:14;95074.03;;;22.93;75.19
49999;BME280;68071;45.062;7.356;2023-07-31T07:35:18;95064.59;;;22.96;70.62
49999;BME280;68071;45.062;7.356;2023-07-31T07:38:22;95075.38;;;23.18;67.26
49999;BME280;68071;45.062;7.356;2023-07-31T07:41:26;95066.50;;;23.46;64.66
49999;BME280;68071;45.062;7.356;2023-07-31T07:44:31;95069.34;;;23.25;67.67
49999;BME280;68071;45.062;7.356;2023-07-31T07:47:35;95070.28;;;23.43;64.55
49999;BME280;68071;45.062;7.356;2023-07-31T07:50:39;95069.38;;;23.78;60.82
49999;BME280;68071;45.062;7.356;2023-07-31T07:53:43;95078.06;;;23.48;59.30
49999;BME280;68071;45.062;7.356;2023-07-31T07:56:47;95077.03;;;23.98;57.06
49999;BME280;68071;45.062;7.356;2023-07-31T07:59:51;95076.38;;;23.15;57.87
49999;BME280;68071;45.062;7.356;2023-07-31T08:02:55;95081.00;;;23.18;62.83
49999;BME280;68071;45.062;7.356;2023-07-31T08:06:01;95087.47;;;23.92;50.46
49999;BME280;68071;45.062;7.356;2023-07-31T08:09:05;95088.13;;;23.81;54.23
49999;BME280;68071;45.062;7.356;2023-07-31T08:12:10;95084.16;;;24.20;52.12
49999;BME280;68071;45.062;7.356;2023-07-31T08:15:14;95083.97;;;24.29;48.79
49999;BME280;68071;45.062;7.356;2023-07-31T08:18:20;95078.00;;;24.22;52.05
49999;BME280;68071;45.062;7.356;2023-07-31T08:21:24;95082.75;;;24.74;51.82
49999;BME280;68071;45.062;7.356;2023-07-31T08:24:28;95068.59;;;24.36;54.60
49999;BME280;68071;45.062;7.356;2023-07-31T08:27:32;95071.84;;;24.61;45.55
49999;BME280;68071;45.062;7.356;2023-07-31T08:30:36;95068.97;;;24.93;47.25
49999;BME280;68071;45.062;7.356;2023-07-31T08:33:39;95074.28;;;24.74;48.66
49999;BME280;68071;45.062;7.356;2023-07-31T08:36:44;95064.09;;;24.18;53.16
49999;BME280;68071;45.062;7.356;2023-07-31T08:39:48;95061.78;;;23.64;46.78
49999;BME280;68071;45.062;7.356;2023-07-31T08:42:54;95057.97;;;23.93;48.33
49999;BME280;68071;45.062;7.356;2023-07-31T08:46:00;95057.41;;;24.15;59.62
49999;BME280;68071;45.062;7.356;2023-07-31T08:49:05;95063.56;;;24.89;51.02
49999;BME280;68071;45.062;7.356;2023-07-31T08:52:11;95053.94;;;23.74;59.32
49999;BME280;68071;45.062;7.356;2023-07-31T08:55:14;95055.22;;;23.25;63.41
49999;BME280;68071;45.062;7.356;2023-07-31T08:58:19;95049.50;;;23.93;63.21
49999;BME280;68071;45.062;7.356;2023-07-31T09:01:23;95051.56;;;24.62;64.93
49999;BME280;68071;45.062;7.356;2023-07-31T09:04:28;95054.59;;;24.97;64.28
49999;BME280;68071;45.062;7.356;2023-07-31T09:07:34;95050.91;;;24.41;62.97
49999;BME280;68071;45.062;7.356;2023-07-31T09:10:43;95048.28;;;24.70;60.44
49999;BME280;68071;45.062;7.356;2023-07-31T09:13:49;95046.53;;;24.78;67.14
49999;BME280;68071;45.062;7.356;2023-07-31T09:16:58;95036.16;;;24.63;63.68
49999;BME280;68071;45.062;7.356;2023-07-31T09:20:19;95036.56;;;24.83;63.05
49999;BME280;68071;45.062;7.356;2023-07-31T09:23:24;95039.38;;;25.49;56.90
49999;BME280;68071;45.062;7.356;2023-07-31T09:29:34;95040.53;;;25.19;68.00
49999;BME280;68071;45.062;7.356;2023-07-31T09:32:38;95034.41;;;25.21;74.81
49999;BME280;68071;45.062;7.356;2023-07-31T09:35:42;95029.78;;;25.29;70.64
49999;BME280;68071;45.062;7.356;2023-07-31T09:38:46;95033.38;;;25.24;70.92
49999;BME280;68071;45.062;7.356;2023-07-31T09:41:54;95025.09;;;25.09;70.23
49999;BME280;68071;45.062;7.356;2023-07-31T09:45:07;95022.31;;;25.26;65.72
49999;BME280;68071;45.062;7.356;2023-07-31T09:48:14;95023.94;;;25.56;69.38
49999;BME280;68071;45.062;7.356;2023-07-31T09:51:26;95024.56;;;25.05;73.42
49999;BME280;68071;45.062;7.356;2023-07-31T09:54:31;95029.22;;;25.19;74.69
49999;BME280;68071;45.062;7.356;2023-07-31T09:57:39;95026.88;;;25.06;71.79
49999;BME280;68071;45.062;7.356;2023-07-31T10:00:45;95023.19;;;24.89;72.44
49999;BME280;68071;45.062;7.356;2023-07-31T10:03:50;95028.75;;;25.27;72.93
49999;BME280;68071;45.062;7.356;2023-07-31T10:06:55;95021.63;;;25.48;67.94
49999;BME280;68071;45.062;7.356;2023-07-31T10:10:00;95026.44;;;25.31;71.85
49999;BME280;68071;45.062;7.356;2023-07-31T10:13:05;95029.78;;;25.35;69.60
49999;BME280;68071;45.062;7.356;2023-07-31T10:16:10;95022.97;;;25.93;66.20
49999;BME280;68071;45.062;7.356;2023-07-31T10:19:17;95018.88;;;26.17;76.00
49999;BME280;68071;45.062;7.356;2023-07-31T10:22:22;95019.63;;;26.00;69.05
49999;BME280;68071;45.062;7.356;2023-07-31T10:25:27;95021.38;;;25.58;65.56
49999;BME280;68071;45.062;7.356;2023-07-31T10:28:32;95010.97;;;25.20;71.96
49999;BME280;68071;45.062;7.356;2023-07-31T10:31:36;95009.75;;;25.38;66.97
49999;BME280;68071;45.062;7.356;2023-07-31T10:34:40;95005.63;;;25.34;69.09
49999;BME280;68071;45.062;7.356;2023-07-31T10:37:44;95002.63;;;25.66;61.00
49999;BME280;68071;45.062;7.356;2023-07-31T10:40:49;94997.00;;;24.94;68.74
49999;BME280;68071;45.062;7.356;2023-07-31T10:44:00;94997.16;;;25.34;76.15
49999;BME280;68071;45.062;7.356;2023-07-31T10:47:06;94998.50;;;25.84;72.30
49999;BME280;68071;45.062;7.356;2023-07-31T10:53:28;94987.38;;;25.41;69.17
49999;BME280;68071;45.062;7.356;2023-07-31T10:56:37;94998.03;;;26.14;67.50
49999;BME280;68071;45.062;7.356;2023-07-31T10:59:41;94988.38;;;26.63;69.78
49999;BME280;68071;45.062;7.356;2023-07-31T11:03:08;94993.25;;;26.85;60.32
49999;BME280;68071;45.062;7.356;2023-07-31T11:06:16;94985.81;;;27.29;63.18
49999;BME280;68071;45.062;7.356;2023-07-31T11:09:19;94992.66;;;26.98;61.12
49999;BME280;68071;45.062;7.356;2023-07-31T11:12:23;94986.88;;;26.50;64.34
49999;BME280;68071;45.062;7.356;2023-07-31T11:15:28;94980.44;;;26.44;65.31
49999;BME280;68071;45.062;7.356;2023-07-31T11:18:32;94975.22;;;26.77;62.45
49999;BME280;68071;45.062;7.356;2023-07-31T11:21:36;94975.31;;;26.42;59.55
49999;BME280;68071;45.062;7.356;2023-07-31T11:24:40;94972.50;;;25.97;68.64
49999;BME280;68071;45.062;7.356;2023-07-31T11:27:44;94963.25;;;25.62;67.04
49999;BME280;68071;45.062;7.356;2023-07-31T11:30:48;94968.88;;;26.36;67.03
49999;BME280;68071;45.062;7.356;2023-07-31T11:34:04;94956.66;;;26.81;68.12
49999;BME280;68071;45.062;7.356;2023-07-31T11:37:09;94958.28;;;26.48;67.12
49999;BME280;68071;45.062;7.356;2023-07-31T11:40:13;94954.28;;;26.91;65.65
49999;BME280;68071;45.062;7.356;2023-07-31T11:43:17;94947.09;;;26.79;63.34
49999;BME280;68071;45.062;7.356;2023-07-31T11:46:22;94946.72;;;26.40;66.13
49999;BME280;68071;45.062;7.356;2023-07-31T11:49:26;94938.59;;;26.84;64.94
49999;BME280;68071;45.062;7.356;2023-07-31T11:52:32;94928.22;;;27.40;64.06
49999;BME280;68071;45.062;7.356;2023-07-31T11:55:37;94936.44;;;27.44;64.03
49999;BME280;68071;45.062;7.356;2023-07-31T11:58:41;94931.59;;;28.05;61.76
49999;BME280;68071;45.062;7.356;2023-07-31T12:01:47;94924.06;;;28.08;64.14
49999;BME280;68071;45.062;7.356;2023-07-31T12:04:54;94924.38;;;27.74;63.15
49999;BME280;68071;45.062;7.356;2023-07-31T12:07:57;94916.34;;;27.47;60.89
49999;BME280;68071;45.062;7.356;2023-07-31T12:11:05;94909.84;;;27.83;63.13
49999;BME280;68071;45.062;7.356;2023-07-31T12:14:30;94910.94;;;27.74;67.72
49999;BME280;68071;45.062;7.356;2023-07-31T12:17:34;94907.47;;;27.87;65.62
49999;BME280;68071;45.062;7.356;2023-07-31T12:20:42;94907.47;;;27.57;66.27
49999;BME280;68071;45.062;7.356;2023-07-31T12:23:46;94910.13;;;27.80;64.05
49999;BME280;68071;45.062;7.356;2023-07-31T12:26:50;94908.88;;;28.30;63.79
49999;BME280;68071;45.062;7.356;2023-07-31T12:29:55;94897.25;;;28.53;61.14
49999;BME280;68071;45.062;7.356;2023-07-31T12:33:07;94897.94;;;28.15;65.63
49999;BME280;68071;45.062;7.356;2023-07-31T12:36:18;94900.19;;;28.47;62.23
49999;BME280;68071;45.062;7.356;2023-07-31T12:39:21;94894.41;;;28.53;62.68
49999;BME280;68071;45.062;7.356;2023-07-31T12:42:26;94890.41;;;28.87;60.67
49999;BME280;68071;45.062;7.356;2023-07-31T12:45:31;94890.66;;;29.60;60.50
49999;BME280;68071;45.062;7.356;2023-07-31T12:48:36;94894.00;;;28.43;61.70
49999;BME280;68071;45.062;7.356;2023-07-31T12:51:39;94881.25;;;27.39;65.88
49999;BME280;68071;45.062;7.356;2023-07-31T12:54:43;94878.38;;;27.51;66.73
49999;BME280;68071;45.062;7.356;2023-07-31T12:57:47;94882.50;;;26.60;68.08
49999;BME280;68071;45.062;7.356;2023-07-31T13:00:52;94870.56;;;26.79;70.92
49999;BME280;68071;45.062;7.356;2023-07-31T13:03:56;94870.41;;;27.43;65.36
49999;BME280;68071;45.062;7.356;2023-07-31T13:07:00;94866.31;;;28.68;59.53
49999;BME280;68071;45.062;7.356;2023-07-31T13:10:04;94873.84;;;29.42;57.71
49999;BME280;68071;45.062;7.356;2023-07-31T13:13:09;94861.75;;;29.55;62.55
49999;BME280;68071;45.062;7.356;2023-07-31T13:16:14;94863.50;;;29.58;57.09
49999;BME280;68071;45.062;7.356;2023-07-31T13:19:17;94857.53;;;29.43;59.79
49999;BME280;68071;45.062;7.356;2023-07-31T13:22:21;94861.59;;;28.33;67.46
49999;BME280;68071;45.062;7.356;2023-07-31T13:25:25;94862.41;;;28.28;62.26
49999;BME280;68071;45.062;7.356;2023-07-31T13:28:29;94865.28;;;28.47;60.85
49999;BME280;68071;45.062;7.356;2023-07-31T13:31:33;94855.91;;;28.52;62.86
49999;BME280;68071;45.062;7.356;2023-07-31T13:34:37;94849.13;;;27.86;67.60
49999;BME280;68071;45.062;7.356;2023-07-31T13:37:41;94846.47;;;27.94;64.25
49999;BME280;68071;45.062;7.356;2023-07-31T13:40:45;94842.97;;;28.07;63.63
49999;BME280;68071;45.062;7.356;2023-07-31T13:43:49;94836.00;;;28.33;65.31
49999;BME280;68071;45.062;7.356;2023-07-31T13:46:53;94837.72;;;28.42;59.38
49999;BME280;68071;45.062;7.356;2023-07-31T13:49:57;94833.28;;;27.97;65.38
49999;BME280;68071;45.062;7.356;2023-07-31T13:53:01;94833.31;;;28.60;66.14
49999;BME280;68071;45.062;7.356;2023-07-31T13:56:05;94825.25;;;28.64;67.00
49999;BME280;68071;45.062;7.356;2023-07-31T13:59:10;94824.66;;;29.42;57.06
49999;BME280;68071;45.062;7.356;2023-07-31T14:02:14;94832.06;;;29.64;58.81
49999;BME280;68071;45.062;7.356;2023-07-31T14:05:18;94827.88;;;30.11;60.50
49999;BME280;68071;45.062;7.356;2023-07-31T14:08:22;94824.81;;;29.50;55.26
49999;BME280;68071;45.062;7.356;2023-07-31T14:11:26;94818.13;;;28.76;59.42
49999;BME280;68071;45.062;7.356;2023-07-31T14:14:30;94818.72;;;28.50;59.92
49999;BME280;68071;45.062;7.356;2023-07-31T14:17:37;94812.28;;;27.81;65.33
49999;BME280;68071;45.062;7.356;2023-07-31T14:20:41;94807.19;;;27.43;63.35
49999;BME280;68071;45.062;7.356;2023-07-31T14:23:45;94801.94;;;27.58;67.23
49999;BME280;68071;45.062;7.356;2023-07-31T14:26:49;94812.97;;;27.62;65.64
49999;BME280;68071;45.062;7.356;2023-07-31T14:29:53;94811.50;;;28.49;64.27
49999;BME280;68071;45.062;7.356;2023-07-31T14:32:57;94806.69;;;28.44;66.53
49999;BME280;68071;45.062;7.356;2023-07-31T14:36:01;94796.75;;;29.40;56.37
49999;BME280;68071;45.062;7.356;2023-07-31T14:39:05;94804.72;;;30.42;53.86
49999;BME280;68071;45.062;7.356;2023-07-31T14:42:09;94803.19;;;30.41;57.89
49999;BME280;68071;45.062;7.356;2023-07-31T14:45:14;94803.19;;;30.14;59.97
49999;BME280;68071;45.062;7.356;2023-07-31T14:48:18;94807.47;;;30.34;55.93
49999;BME280;68071;45.062;7.356;2023-07-31T14:51:22;94801.22;;;30.62;54.53
49999;BME280;68071;45.062;7.356;2023-07-31T14:54:26;94798.91;;;30.96;57.48
49999;BME280;68071;45.062;7.356;2023-07-31T14:57:30;94786.69;;;31.51;57.31
49999;BME280;68071;45.062;7.356;2023-07-31T15:00:33;94793.25;;;31.17;53.63
49999;BME280;68071;45.062;7.356;2023-07-31T15:03:38;94787.72;;;31.40;53.70
49999;BME280;68071;45.062;7.356;2023-07-31T15:06:42;94790.88;;;31.29;51.76
49999;BME280;68071;45.062;7.356;2023-07-31T15:09:46;94786.28;;;31.97;52.12
49999;BME280;68071;45.062;7.356;2023-07-31T15:12:50;94789.06;;;32.10;47.29
49999;BME280;68071;45.062;7.356;2023-07-31T15:15:53;94785.56;;;32.04;52.64
49999;BME280;68071;45.062;7.356;2023-07-31T15:18:59;94773.28;;;31.38;52.69
49999;BME280;68071;45.062;7.356;2023-07-31T15:22:03;94773.03;;;31.57;50.42
49999;BME280;68071;45.062;7.356;2023-07-31T15:25:08;94771.31;;;32.41;45.94
49999;BME280;68071;45.062;7.356;2023-07-31T15:28:12;94770.91;;;32.37;50.94
49999;BME280;68071;45.062;7.356;2023-07-31T15:31:15;94767.50;;;32.46;49.96
49999;BME280;68071;45.062;7.356;2023-07-31T15:34:19;94766.41;;;32.57;48.55
49999;BME280;68071;45.062;7.356;2023-07-31T15:37:24;94767.66;;;32.33;50.27
49999;BME280;68071;45.062;7.356;2023-07-31T15:40:28;94772.06;;;32.86;48.18
49999;BME280;68071;45.062;7.356;2023-07-31T15:43:32;94768.59;;;32.35;51.04
49999;BME280;68071;45.062;7.356;2023-07-31T15:46:37;94762.19;;;32.13;49.19
49999;BME280;68071;45.062;7.356;2023-07-31T15:49:41;94761.13;;;31.95;49.98
49999;BME280;68071;45.062;7.356;2023-07-31T15:52:45;94755.25;;;32.30;49.19
49999;BME280;68071;45.062;7.356;2023-07-31T15:55:48;94758.47;;;32.26;49.65
49999;BME280;68071;45.062;7.356;2023-07-31T15:58:52;94758.81;;;32.59;48.66
49999;BME280;68071;45.062;7.356;2023-07-31T16:01:58;94747.84;;;32.06;49.01
49999;BME280;68071;45.062;7.356;2023-07-31T16:05:03;94745.44;;;32.54;47.89
49999;BME280;68071;45.062;7.356;2023-07-31T16:08:07;94742.66;;;32.85;46.02
49999;BME280;68071;45.062;7.356;2023-07-31T16:11:12;94748.34;;;32.70;47.78
49999;BME280;68071;45.062;7.356;2023-07-31T16:14:16;94740.63;;;33.09;48.18
49999;BME280;68071;45.062;7.356;2023-07-31T16:17:20;94740.38;;;32.32;49.28
49999;BME280;68071;45.062;7.356;2023-07-31T16:20:24;94741.19;;;33.08;45.02
49999;BME280;68071;45.062;7.356;2023-07-31T16:23:28;94741.97;;;33.31;44.52
49999;BME280;68071;45.062;7.356;2023-07-31T16:26:32;94740.09;;;33.49;44.34
49999;BME280;68071;45.062;7.356;2023-07-31T16:29:36;94740.28;;;33.67;45.09